Etusivu
METAR-TAF:

METAR-TAF

Lentoasemat :

Bellaire, Michigan, Yhdysvallat

Leveyspiiri: 44-59-18N, Pituuspiiri: 085-11-54W, korkeus merenpinnasta: 190 m

Tämänhetkinen sää

Tämä raportti tehtiin 22 minuuttia sitten, kello 06.35 UTC
tyyntä
Lämpötila 1°C
Kosteus 93%
Ilmanpaine 1016 hPa
Näkyvyys: 11.3 km
Hajanaisia pilviä 1300 ft:n korkeudessa
Pilvistä 1900 ft:n korkeudessa

METAR: KACB 200635Z AUTO 00000KT 7SM SCT013 OVC019 01/00 A3000 RMK AO2 T00061001

Aika: 01:57 (06:57 UTC)


TAF: puuttuu

Säähavainnot ja -ennusteet yli 4000 lentoasemalta (METAR- ja TAF-raportit).

Käytössä olevat sääasemat on merkitty karttaan keltaisilla ja punaisilla pisteillä.

Aseta hiiri pisteen päälle nähdäksesi sääaseman nimen.

Klikkaa sitten nähdäksesi säähavainnot ja -ennusteet.

Kartan vaihtaminen: klikkaa mustalla rastilla varustettuja vihreitä pisteitä, niin voit zoomata sisään; viivalla varustettua vihreää pistettä, niin voit zoomata ulos tai vihreitä nuolia, niin pääset viereisille kartoille.


METAR-TAF: